Time;durP1;ratioP1;P1;durP2;ratioP2;P2;SDS_P1;SDS_P2;PMS_P1;PMS_P2;Temp;Humidity;BMP_temperature;BMP_pressure;BME280_temperature;BME280_humidity;BME280_pressure;Samples;Min_cycle;Max_cycle;Signal;HPM_P1;HPM_P2
2023/04/12 00:01:57;;;;;;;14.68;2.85;;;11.50;91.40;;;;;;5028957;28;20045;-74
2023/04/12 00:04:25;;;;;;;12.35;2.33;;;11.50;91.60;;;;;;5028956;28;20080;-73
2023/04/12 00:06:53;;;;;;;10.85;2.10;;;11.50;91.60;;;;;;5028545;28;20017;-73
2023/04/12 00:09:19;;;;;;;6.95;2.05;;;11.60;91.70;;;;;;5011311;28;20017;-73
2023/04/12 00:11:44;;;;;;;14.30;2.58;;;11.60;91.80;;;;;;5011337;28;20036;-73
2023/04/12 00:14:10;;;;;;;11.70;3.65;;;11.50;92.30;;;;;;5029197;28;20431;-74
2023/04/12 00:16:37;;;;;;;11.93;2.90;;;11.40;92.80;;;;;;5011681;28;20383;-73
2023/04/12 00:19:02;;;;;;;9.68;2.50;;;11.30;93.10;;;;;;5028904;28;20404;-73
2023/04/12 00:21:29;;;;;;;10.73;2.35;;;11.30;93.10;;;;;;5028312;28;20025;-75
2023/04/12 00:23:55;;;;;;;8.02;2.22;;;11.20;93.80;;;;;;5029082;28;20999;-74
2023/04/12 00:26:21;;;;;;;7.70;2.13;;;11.20;94.00;;;;;;5029566;28;20112;-73
2023/04/12 00:28:47;;;;;;;14.18;2.78;;;11.20;94.30;;;;;;5029116;28;20161;-73
2023/04/12 00:31:12;;;;;;;14.77;2.80;;;11.10;94.90;;;;;;5028973;28;20065;-75
2023/04/12 00:33:38;;;;;;;8.82;2.20;;;11.10;95.00;;;;;;5028173;28;20080;-74
2023/04/12 00:36:04;;;;;;;8.40;2.65;;;11.00;95.00;;;;;;5028890;28;20029;-74
2023/04/12 00:38:30;;;;;;;10.23;3.05;;;11.00;95.20;;;;;;5029040;28;20029;-72
2023/04/12 00:40:55;;;;;;;6.68;1.88;;;11.10;95.10;;;;;;5029090;28;20531;-73
2023/04/12 00:43:21;;;;;;;9.50;3.20;;;11.00;95.80;;;;;;5028120;28;20047;-72
2023/04/12 00:45:48;;;;;;;11.18;3.05;;;11.00;95.80;;;;;;5028451;28;20027;-73
2023/04/12 00:48:15;;;;;;;14.77;2.92;;;11.00;95.50;;;;;;5028419;28;20017;-72
2023/04/12 00:50:43;;;;;;;7.43;2.20;;;10.90;96.20;;;;;;5028380;28;20030;-73
2023/04/12 00:53:13;;;;;;;8.70;2.45;;;10.90;96.10;;;;;;5027985;28;20107;-71
2023/04/12 00:55:49;;;;;;;9.52;2.53;;;10.80;96.70;;;;;;5010893;28;20480;-71
2023/04/12 00:58:15;;;;;;;5.95;1.65;;;10.70;97.00;;;;;;5028766;28;20033;-72
2023/04/12 01:00:48;;;;;;;8.57;2.45;;;10.60;96.70;;;;;;5028696;28;20034;-72
2023/04/12 01:03:26;;;;;;;7.18;1.65;;;10.60;96.90;;;;;;5010560;28;20052;-72
2023/04/12 01:06:17;;;;;;;7.95;1.92;;;10.70;96.70;;;;;;5028422;28;20022;-73
2023/04/12 01:08:56;;;;;;;4.47;1.52;;;10.60;97.00;;;;;;5028308;28;20053;-73
2023/04/12 01:11:44;;;;;;;8.40;1.90;;;10.60;96.60;;;;;;5028436;28;20488;-73
2023/04/12 01:14:12;;;;;;;7.07;1.88;;;10.50;97.00;;;;;;5028914;28;20060;-72
2023/04/12 01:17:06;;;;;;;5.28;1.60;;;10.50;97.30;;;;;;5029058;28;20226;-72
2023/04/12 01:19:33;;;;;;;7.28;1.75;;;10.50;97.30;;;;;;5028677;28;20081;-72
2023/04/12 01:22:54;;;;;;;6.68;1.88;;;10.50;97.50;;;;;;5028688;28;20030;-71
2023/04/12 01:25:47;;;;;;;5.97;2.50;;;10.40;97.80;;;;;;4966826;28;20350;-73
2023/04/12 01:28:22;;;;;;;5.82;1.35;;;10.40;97.90;;;;;;4967487;28;20490;-72
2023/04/12 01:30:50;;;;;;;5.50;1.75;;;10.30;97.50;;;;;;5010769;28;20040;-72
2023/04/12 01:33:17;;;;;;;8.70;2.47;;;10.30;98.00;;;;;;5028521;28;20117;-72
2023/04/12 01:35:44;;;;;;;8.95;1.85;;;10.30;98.20;;;;;;5027983;28;20029;-72
2023/04/12 01:38:10;;;;;;;8.07;1.55;;;10.30;98.00;;;;;;5028709;28;20022;-72
2023/04/12 01:40:38;;;;;;;5.78;2.10;;;10.20;98.30;;;;;;5027473;28;20071;-72
2023/04/12 01:43:21;;;;;;;6.97;1.98;;;10.20;98.30;;;;;;5028663;28;20078;-73
2023/04/12 01:45:47;;;;;;;4.90;1.50;;;10.20;98.70;;;;;;5027863;28;20030;-72
2023/04/12 01:48:12;;;;;;;7.50;2.08;;;10.20;98.20;;;;;;5028367;28;20024;-73
2023/04/12 01:50:57;;;;;;;10.15;1.92;;;10.20;98.80;;;;;;5027716;28;20041;-73
2023/04/12 01:53:35;;;;;;;7.75;1.85;;;10.10;98.90;;;;;;5027951;28;20026;-72
2023/04/12 01:56:09;;;;;;;9.50;2.25;;;10.10;98.70;;;;;;5027292;28;20053;-72
2023/04/12 01:58:38;;;;;;;11.35;2.22;;;10.10;98.70;;;;;;5029762;28;20033;-74
2023/04/12 02:01:04;;;;;;;6.43;2.13;;;10.10;99.00;;;;;;5030965;28;20018;-73
2023/04/12 02:03:30;;;;;;;7.15;2.00;;;10.00;98.90;;;;;;5031504;28;20120;-73
2023/04/12 02:05:57;;;;;;;13.38;2.70;;;10.00;99.10;;;;;;5013092;28;20113;-73
2023/04/12 02:08:23;;;;;;;10.68;2.28;;;10.10;99.30;;;;;;5031453;28;20538;-72
2023/04/12 02:10:50;;;;;;;6.97;2.47;;;10.10;99.40;;;;;;5031053;28;20080;-73
2023/04/12 02:13:17;;;;;;;6.43;1.85;;;10.00;99.20;;;;;;5031236;28;20483;-73
2023/04/12 02:15:43;;;;;;;8.35;1.63;;;9.90;99.70;;;;;;5030616;28;20029;-73
2023/04/12 02:18:08;;;;;;;8.38;2.15;;;9.90;99.30;;;;;;5031345;28;20051;-73
2023/04/12 02:20:34;;;;;;;9.10;2.72;;;9.90;99.40;;;;;;5031449;28;20553;-73
2023/04/12 02:23:00;;;;;;;5.40;2.08;;;9.80;99.50;;;;;;5030478;28;20026;-73
2023/04/12 02:25:26;;;;;;;12.05;2.67;;;9.80;99.80;;;;;;5031070;28;20072;-72
2023/04/12 02:27:52;;;;;;;11.00;2.60;;;9.90;99.90;;;;;;5031312;28;20116;-73
2023/04/12 02:30:17;;;;;;;8.77;2.55;;;9.90;99.70;;;;;;5030850;28;20028;-73
2023/04/12 02:32:44;;;;;;;10.63;2.95;;;9.90;99.50;;;;;;5031132;28;20143;-72
2023/04/12 02:35:11;;;;;;;8.85;1.90;;;9.80;99.60;;;;;;5030714;28;20022;-73
2023/04/12 02:37:38;;;;;;;8.13;1.92;;;9.70;99.90;;;;;;5030704;28;20108;-71
2023/04/12 02:40:05;;;;;;;7.95;2.00;;;9.80;99.90;;;;;;5031417;28;20025;-71
2023/04/12 02:42:31;;;;;;;10.05;2.53;;;9.80;99.80;;;;;;5031180;28;20030;-71
2023/04/12 02:44:57;;;;;;;5.15;1.80;;;9.80;99.40;;;;;;5030179;28;20075;-73
2023/04/12 02:47:27;;;;;;;7.07;1.60;;;9.80;99.40;;;;;;5030860;28;20472;-73
2023/04/12 02:49:53;;;;;;;7.10;1.80;;;9.70;99.60;;;;;;5020346;28;20021;-71
2023/04/12 02:52:18;;;;;;;8.75;2.15;;;9.70;99.60;;;;;;5030514;28;20091;-73
2023/04/12 02:54:44;;;;;;;7.18;1.63;;;9.70;99.50;;;;;;5030265;28;20101;-72
2023/04/12 02:57:10;;;;;;;6.80;1.65;;;9.70;99.30;;;;;;5030806;28;20036;-73
2023/04/12 02:59:36;;;;;;;6.53;1.80;;;9.80;98.90;;;;;;5030312;28;20013;-73
2023/04/12 03:02:01;;;;;;;4.82;1.42;;;9.70;99.30;;;;;;5030605;28;20527;-72
2023/04/12 03:04:29;;;;;;;8.85;1.73;;;9.70;99.40;;;;;;5029984;28;20096;-73
2023/04/12 03:06:57;;;;;;;4.38;1.75;;;9.70;99.20;;;;;;5030589;28;20474;-72
2023/04/12 03:09:24;;;;;;;4.75;1.25;;;9.70;99.60;;;;;;5028973;28;20383;-72
2023/04/12 03:11:50;;;;;;;8.10;1.55;;;9.70;99.40;;;;;;5030432;28;20040;-72
2023/04/12 03:14:16;;;;;;;4.93;1.67;;;9.70;99.60;;;;;;5030680;28;20029;-72
2023/04/12 03:16:42;;;;;;;6.95;1.77;;;9.70;99.70;;;;;;5030523;28;20021;-74
2023/04/12 03:19:08;;;;;;;6.72;1.70;;;9.70;99.70;;;;;;5030451;28;20522;-73
2023/04/12 03:21:34;;;;;;;6.57;1.70;;;9.70;99.50;;;;;;5012120;28;20306;-73
2023/04/12 03:24:00;;;;;;;5.43;2.25;;;9.60;99.90;;;;;;5012518;28;20017;-73
2023/04/12 03:26:26;;;;;;;5.95;1.42;;;9.70;99.70;;;;;;5030687;28;20484;-72
2023/04/12 03:29:03;;;;;;;7.05;1.45;;;9.70;99.50;;;;;;5029522;28;20030;-71
2023/04/12 03:31:30;;;;;;;8.10;2.10;;;9.70;99.30;;;;;;5030306;28;20056;-73
2023/04/12 03:33:55;;;;;;;3.38;1.40;;;9.80;98.70;;;;;;5029853;28;20420;-73
2023/04/12 03:36:22;;;;;;;5.95;1.85;;;9.70;99.10;;;;;;5019008;28;20048;-73
2023/04/12 03:38:47;;;;;;;6.63;1.65;;;9.70;99.50;;;;;;5029857;28;20368;-73
2023/04/12 03:41:14;;;;;;;9.65;2.63;;;9.70;99.40;;;;;;5029708;28;20466;-71
2023/04/12 03:43:41;;;;;;;8.35;2.40;;;9.70;99.50;;;;;;5012277;28;20404;-72
2023/04/12 03:46:07;;;;;;;7.05;1.95;;;9.70;99.40;;;;;;5012556;28;20387;-71
2023/04/12 03:48:33;;;;;;;7.47;1.88;;;9.70;99.50;;;;;;5030043;28;20029;-71
2023/04/12 03:50:58;;;;;;;4.57;1.48;;;9.80;99.30;;;;;;5030115;28;20037;-72
2023/04/12 03:53:29;;;;;;;7.22;2.10;;;9.70;99.50;;;;;;5030415;28;20108;-72
2023/04/12 03:55:55;;;;;;;8.40;1.80;;;9.80;99.90;;;;;;5028753;28;20025;-73
2023/04/12 03:58:20;;;;;;;8.63;1.92;;;9.70;99.70;;;;;;5029649;28;20471;-71
2023/04/12 04:00:47;;;;;;;4.60;1.48;;;9.70;99.90;;;;;;5029290;28;20040;-73
2023/04/12 04:03:13;;;;;;;5.40;1.90;;;9.70;99.90;;;;;;5029472;28;20050;-72
2023/04/12 04:05:39;;;;;;;6.38;1.90;;;9.60;99.90;;;;;;5011082;28;20033;-72
2023/04/12 04:08:06;;;;;;;6.85;2.40;;;9.60;99.90;;;;;;5029394;28;20026;-72
2023/04/12 04:10:32;;;;;;;6.70;1.80;;;9.60;99.90;;;;;;5010700;28;20479;-72
2023/04/12 04:12:58;;;;;;;7.90;1.80;;;9.50;99.90;;;;;;5029283;28;20025;-73
2023/04/12 04:15:27;;;;;;;6.28;1.77;;;9.60;99.90;;;;;;5011549;28;20549;-73
2023/04/12 04:17:53;;;;;;;10.65;2.67;;;9.60;99.90;;;;;;5011676;28;20112;-72
2023/04/12 04:20:19;;;;;;;3.42;1.23;;;9.60;99.90;;;;;;5010487;28;20116;-73
2023/04/12 04:22:48;;;;;;;5.38;1.35;;;9.60;99.90;;;;;;5029041;28;20048;-74
2023/04/12 04:25:15;;;;;;;8.67;2.50;;;9.60;99.90;;;;;;5029372;28;20026;-73
2023/04/12 04:27:43;;;;;;;4.32;1.40;;;9.40;99.90;;;;;;5029002;28;20022;-72
2023/04/12 04:30:10;;;;;;;4.15;1.55;;;9.50;99.90;;;;;;5029499;28;20026;-73
2023/04/12 04:32:36;;;;;;;8.43;2.60;;;9.50;99.90;;;;;;5028803;28;20534;-72
2023/04/12 04:35:02;;;;;;;8.90;2.03;;;9.50;99.90;;;;;;5029402;28;20022;-72
2023/04/12 04:37:29;;;;;;;6.03;1.83;;;9.40;99.90;;;;;;5010927;28;20025;-74
2023/04/12 04:39:55;;;;;;;6.32;1.90;;;9.40;99.90;;;;;;5028729;28;20021;-73
2023/04/12 04:42:21;;;;;;;5.78;1.92;;;9.40;99.90;;;;;;5010842;28;20025;-73
2023/04/12 04:44:50;;;;;;;8.55;2.28;;;9.40;99.90;;;;;;5028797;28;20112;-73
2023/04/12 04:47:15;;;;;;;11.75;1.92;;;9.30;99.90;;;;;;5011494;28;20459;-71
2023/04/12 04:49:43;;;;;;;6.88;1.50;;;9.30;99.90;;;;;;5028862;28;20037;-73
2023/04/12 04:52:09;;;;;;;6.97;1.88;;;9.30;99.90;;;;;;5011000;28;20549;-72
2023/04/12 04:54:34;;;;;;;7.65;2.03;;;9.30;99.90;;;;;;5011221;28;20104;-72
2023/04/12 04:57:00;;;;;;;5.88;2.08;;;9.20;99.90;;;;;;5010079;28;20384;-73
2023/04/12 04:59:26;;;;;;;8.00;2.20;;;9.30;99.90;;;;;;5028716;28;20068;-73
2023/04/12 05:01:52;;;;;;;3.70;1.60;;;9.30;99.90;;;;;;5028015;28;20080;-73
2023/04/12 05:04:17;;;;;;;6.28;2.95;;;9.20;99.90;;;;;;5010744;28;20060;-71
2023/04/12 05:06:44;;;;;;;3.28;1.40;;;9.30;99.90;;;;;;5028275;28;20044;-74
2023/04/12 05:09:10;;;;;;;4.68;1.70;;;9.30;99.90;;;;;;5028896;28;20025;-73
2023/04/12 05:11:36;;;;;;;5.82;2.70;;;9.30;99.90;;;;;;5010542;28;20034;-72
2023/04/12 05:14:01;;;;;;;6.20;1.52;;;9.30;99.90;;;;;;5028232;28;20105;-74
2023/04/12 05:16:27;;;;;;;4.65;1.65;;;9.30;99.90;;;;;;5028219;28;20030;-73
2023/04/12 05:18:53;;;;;;;3.80;1.50;;;9.30;99.90;;;;;;5010486;28;20086;-72
2023/04/12 05:21:18;;;;;;;8.45;2.40;;;9.30;99.90;;;;;;5028664;28;20028;-72
2023/04/12 05:23:45;;;;;;;5.13;2.05;;;9.30;99.90;;;;;;5028253;28;20112;-73
2023/04/12 05:26:11;;;;;;;8.52;1.98;;;9.30;99.90;;;;;;5028312;28;20029;-72
2023/04/12 05:28:37;;;;;;;4.50;1.60;;;9.30;99.90;;;;;;5027798;28;20013;-72
2023/04/12 05:31:02;;;;;;;7.68;2.60;;;9.30;99.90;;;;;;5010987;28;20063;-73
2023/04/12 05:33:28;;;;;;;7.13;2.35;;;9.30;99.90;;;;;;5031286;28;20022;-72
2023/04/12 05:35:54;;;;;;;4.13;1.60;;;9.30;99.90;;;;;;5032217;28;20021;-72
2023/04/12 05:38:19;;;;;;;6.07;2.00;;;9.30;99.90;;;;;;5014189;28;20036;-73
2023/04/12 05:40:45;;;;;;;4.47;1.90;;;9.30;99.90;;;;;;5013455;28;20029;-72
2023/04/12 05:43:13;;;;;;;4.28;2.00;;;9.40;99.90;;;;;;5032042;28;20476;-74
2023/04/12 05:45:40;;;;;;;4.25;1.58;;;9.30;99.90;;;;;;5014278;28;20395;-72
2023/04/12 05:48:05;;;;;;;3.58;1.65;;;9.30;99.90;;;;;;5031507;28;20029;-72
2023/04/12 05:50:31;;;;;;;8.20;2.63;;;9.30;99.90;;;;;;5032071;28;20476;-72
2023/04/12 05:52:57;;;;;;;7.03;2.55;;;9.30;99.90;;;;;;5032144;28;20075;-72
2023/04/12 05:55:22;;;;;;;6.28;2.53;;;9.30;99.90;;;;;;5031650;28;20494;-73
2023/04/12 05:57:48;;;;;;;2.33;1.20;;;9.30;99.90;;;;;;5031746;28;20027;-73
2023/04/12 06:00:17;;;;;;;2.95;1.73;;;9.30;99.90;;;;;;5032132;28;20083;-72
2023/04/12 06:02:44;;;;;;;3.17;1.48;;;9.30;99.90;;;;;;5031870;28;20478;-72
2023/04/12 06:05:11;;;;;;;4.50;1.83;;;9.40;99.90;;;;;;5031756;28;20025;-72
2023/04/12 06:07:38;;;;;;;4.20;1.83;;;9.50;99.90;;;;;;5032227;28;20461;-72
2023/04/12 06:10:05;;;;;;;3.90;1.40;;;9.50;99.90;;;;;;5031500;28;20534;-73
2023/04/12 06:12:31;;;;;;;5.97;2.17;;;9.50;99.90;;;;;;5031810;28;20033;-73
2023/04/12 06:14:57;;;;;;;6.10;2.17;;;9.50;99.90;;;;;;5030832;28;20420;-72
2023/04/12 06:17:22;;;;;;;6.43;1.83;;;9.50;99.90;;;;;;5013541;28;20056;-72
2023/04/12 06:19:48;;;;;;;5.65;2.25;;;9.60;99.90;;;;;;5031779;28;20029;-73
2023/04/12 06:22:14;;;;;;;4.32;2.20;;;9.60;99.90;;;;;;5031378;28;20053;-73
2023/04/12 06:24:40;;;;;;;4.20;1.60;;;9.60;99.90;;;;;;5031235;28;20435;-72
2023/04/12 06:27:05;;;;;;;5.10;2.30;;;9.60;99.90;;;;;;5031885;28;20053;-74
2023/04/12 06:29:31;;;;;;;3.75;2.15;;;9.60;99.90;;;;;;5031405;28;20034;-73
2023/04/12 06:31:57;;;;;;;7.68;2.78;;;9.60;99.90;;;;;;5031307;28;20083;-72
2023/04/12 06:34:22;;;;;;;6.72;2.25;;;9.60;99.90;;;;;;5013631;28;20161;-72
2023/04/12 06:36:48;;;;;;;5.57;2.33;;;9.70;99.90;;;;;;5031341;28;20036;-72
2023/04/12 06:39:15;;;;;;;6.13;2.58;;;9.70;99.90;;;;;;5031021;28;20428;-73
2023/04/12 06:41:42;;;;;;;5.35;2.30;;;9.70;99.90;;;;;;5030716;28;20026;-73
2023/04/12 06:44:08;;;;;;;6.93;2.20;;;9.80;99.90;;;;;;5012656;28;20476;-73
2023/04/12 06:46:34;;;;;;;3.60;1.55;;;9.80;99.90;;;;;;5030926;28;20026;-72
2023/04/12 06:49:00;;;;;;;5.20;2.00;;;9.70;99.90;;;;;;5013456;28;20044;-73
2023/04/12 06:51:27;;;;;;;2.22;1.33;;;9.80;99.90;;;;;;5031143;28;20033;-74
2023/04/12 06:53:53;;;;;;;4.85;1.60;;;9.80;99.90;;;;;;5029981;28;20116;-72
2023/04/12 06:56:18;;;;;;;2.97;1.60;;;9.80;99.90;;;;;;5030416;28;20412;-73
2023/04/12 06:58:44;;;;;;;4.28;1.60;;;9.80;99.90;;;;;;5030538;28;20060;-73
2023/04/12 07:01:13;;;;;;;5.47;2.03;;;9.80;99.90;;;;;;5030179;28;20076;-74
2023/04/12 07:03:39;;;;;;;2.95;1.80;;;9.80;99.90;;;;;;5030451;28;20088;-73
2023/04/12 07:06:05;;;;;;;8.18;2.67;;;9.80;99.90;;;;;;5030926;28;20021;-72
2023/04/12 07:08:35;;;;;;;7.50;2.88;;;9.90;99.90;;;;;;5030362;28;20029;-73
2023/04/12 07:11:01;;;;;;;8.85;2.70;;;9.90;99.90;;;;;;5030808;28;20046;-73
2023/04/12 07:13:27;;;;;;;7.20;2.88;;;10.00;99.90;;;;;;5013132;28;20018;-73
2023/04/12 07:15:57;;;;;;;5.85;3.25;;;10.00;99.90;;;;;;5030417;28;20079;-73
2023/04/12 07:18:22;;;;;;;6.88;3.08;;;10.00;99.90;;;;;;5026961;28;20088;-74
2023/04/12 07:20:49;;;;;;;7.20;3.35;;;10.00;99.90;;;;;;5030393;28;20030;-74
2023/04/12 07:23:15;;;;;;;5.95;2.83;;;10.10;99.90;;;;;;5029272;28;20571;-73
2023/04/12 07:25:41;;;;;;;6.18;3.70;;;10.10;99.90;;;;;;5030192;28;20052;-74
2023/04/12 07:28:07;;;;;;;6.90;3.22;;;10.20;99.90;;;;;;5030159;28;20082;-74
2023/04/12 07:30:33;;;;;;;5.35;3.25;;;10.20;99.90;;;;;;5030474;28;20021;-73
2023/04/12 07:33:04;;;;;;;5.45;3.67;;;10.20;99.90;;;;;;5012413;28;20340;-72
2023/04/12 07:35:30;;;;;;;11.77;5.10;;;10.30;99.90;;;;;;5029359;28;20017;-74
2023/04/12 07:37:56;;;;;;;8.48;4.82;;;10.30;99.90;;;;;;5030006;28;20040;-73
2023/04/12 07:40:22;;;;;;;8.90;4.38;;;10.40;99.90;;;;;;5029670;28;20025;-73
2023/04/12 07:42:48;;;;;;;7.82;4.13;;;10.50;99.90;;;;;;5029754;28;20155;-72
2023/04/12 07:45:13;;;;;;;5.43;2.72;;;10.50;99.90;;;;;;5029688;28;20108;-72
2023/04/12 07:47:39;;;;;;;8.07;3.40;;;10.60;99.90;;;;;;5029239;28;20029;-73
2023/04/12 07:50:05;;;;;;;6.35;3.50;;;10.60;99.90;;;;;;5029685;28;20080;-73
2023/04/12 07:52:31;;;;;;;6.40;3.13;;;10.50;99.90;;;;;;5011417;28;20051;-73
2023/04/12 07:54:57;;;;;;;7.85;4.18;;;10.60;99.90;;;;;;5030078;28;20021;-73
2023/04/12 07:57:23;;;;;;;7.13;4.32;;;10.60;99.90;;;;;;5029686;28;20021;-72
2023/04/12 07:59:49;;;;;;;8.70;4.20;;;10.60;99.90;;;;;;5029716;28;20032;-72
2023/04/12 08:02:23;;;;;;;7.00;4.13;;;10.60;99.90;;;;;;5030089;28;20515;-73
2023/04/12 08:04:55;;;;;;;8.65;4.35;;;10.60;99.90;;;;;;5011693;28;20080;-74
2023/04/12 08:07:21;;;;;;;6.82;3.53;;;10.70;99.90;;;;;;5030041;28;20116;-74
2023/04/12 08:09:47;;;;;;;7.35;4.60;;;10.70;99.90;;;;;;5029247;28;20120;-73
2023/04/12 08:12:13;;;;;;;7.57;4.35;;;10.80;99.90;;;;;;5011403;28;20037;-73
2023/04/12 08:14:39;;;;;;;12.60;5.20;;;10.80;99.90;;;;;;5029387;28;20019;-73
2023/04/12 08:17:05;;;;;;;9.18;4.35;;;10.80;99.90;;;;;;5029699;28;20384;-73
2023/04/12 08:19:30;;;;;;;11.13;5.10;;;10.80;99.90;;;;;;5028754;28;20029;-73
2023/04/12 08:21:56;;;;;;;9.80;3.95;;;10.80;99.90;;;;;;5029071;28;20472;-73
2023/04/12 08:24:22;;;;;;;9.50;4.55;;;10.90;99.90;;;;;;5028560;28;20021;-73
2023/04/12 08:26:49;;;;;;;11.05;4.47;;;10.90;99.90;;;;;;5029062;28;20044;-73
2023/04/12 08:29:15;;;;;;;10.77;3.67;;;11.00;99.90;;;;;;5028876;28;20026;-73
2023/04/12 08:31:41;;;;;;;11.07;3.70;;;11.00;99.90;;;;;;5011013;28;20037;-73
2023/04/12 08:34:06;;;;;;;12.75;4.90;;;11.10;99.90;;;;;;5010610;28;20029;-73
2023/04/12 08:36:32;;;;;;;10.25;3.33;;;11.20;99.90;;;;;;5028523;28;20118;-72
2023/04/12 08:39:01;;;;;;;10.52;2.88;;;11.20;99.90;;;;;;5028875;28;20333;-73
2023/04/12 08:41:27;;;;;;;11.88;3.03;;;11.20;99.90;;;;;;5029471;28;20112;-73
2023/04/12 08:43:56;;;;;;;12.20;2.80;;;11.20;99.90;;;;;;5028541;28;20109;-73
2023/04/12 08:46:22;;;;;;;10.27;3.05;;;11.30;99.90;;;;;;5028764;28;20025;-73
2023/04/12 08:48:53;;;;;;;15.20;3.78;;;11.40;99.90;;;;;;5010782;28;20075;-73
2023/04/12 08:51:20;;;;;;;8.23;2.95;;;11.50;99.90;;;;;;5011980;28;20041;-74
2023/04/12 08:53:46;;;;;;;12.82;3.63;;;11.50;99.90;;;;;;5011744;28;20171;-74
2023/04/12 08:56:12;;;;;;;11.90;3.55;;;11.60;99.90;;;;;;5029015;28;20157;-74
2023/04/12 08:58:45;;;;;;;12.57;3.58;;;11.70;99.90;;;;;;5034612;28;20030;-73
2023/04/12 09:01:14;;;;;;;16.45;4.10;;;11.80;99.90;;;;;;5014322;28;20028;-73
2023/04/12 09:03:44;;;;;;;13.47;3.33;;;11.80;99.90;;;;;;5027977;28;20025;-73
2023/04/12 09:06:11;;;;;;;9.57;3.45;;;11.80;99.90;;;;;;5028854;28;20375;-73
2023/04/12 09:08:49;;;;;;;11.88;2.63;;;11.80;99.70;;;;;;5031757;28;20026;-74
2023/04/12 09:11:23;;;;;;;5.18;1.13;;;11.90;99.40;;;;;;5029917;28;20057;-73
2023/04/12 09:13:49;;;;;;;3.88;1.45;;;12.00;96.80;;;;;;5014110;28;20420;-74
2023/04/12 09:16:15;;;;;;;12.45;3.53;;;12.00;95.90;;;;;;5010104;28;20029;-73
2023/04/12 09:18:50;;;;;;;10.07;2.67;;;12.20;97.60;;;;;;5033099;28;20583;-73
2023/04/12 09:21:17;;;;;;;19.23;4.35;;;12.20;98.20;;;;;;5032129;28;20064;-74
2023/04/12 09:23:43;;;;;;;16.27;3.95;;;12.40;98.50;;;;;;5033075;28;20041;-76
2023/04/12 09:26:25;;;;;;;16.42;3.90;;;12.60;99.30;;;;;;5015988;28;20021;-75
2023/04/12 09:28:50;;;;;;;10.98;4.25;;;12.70;98.50;;;;;;5014343;28;20025;-75
2023/04/12 09:31:16;;;;;;;17.15;3.85;;;12.90;98.20;;;;;;5033766;28;20034;-75
2023/04/12 09:33:42;;;;;;;15.85;3.75;;;13.00;97.70;;;;;;5036117;28;20124;-76
2023/04/12 09:36:12;;;;;;;19.40;4.60;;;12.90;97.30;;;;;;5026708;28;20030;-74
2023/04/12 09:38:38;;;;;;;9.18;3.10;;;13.00;97.60;;;;;;5031186;28;20095;-75
2023/04/12 09:41:18;;;;;;;22.63;4.53;;;13.20;97.30;;;;;;5026788;28;21100;-75
2023/04/12 09:43:44;;;;;;;11.60;3.88;;;13.30;96.90;;;;;;5021853;28;20041;-78
2023/04/12 09:46:13;;;;;;;15.98;3.47;;;13.30;95.80;;;;;;5030316;28;20467;-77
2023/04/12 09:48:39;;;;;;;19.60;4.85;;;13.30;95.60;;;;;;5010516;28;20365;-75
2023/04/12 09:51:06;;;;;;;18.05;3.95;;;13.20;95.50;;;;;;5031999;28;20044;-75
2023/04/12 09:53:35;;;;;;;16.50;4.05;;;13.30;96.00;;;;;;5023983;28;20364;-77
2023/04/12 09:56:02;;;;;;;11.65;3.80;;;13.30;96.10;;;;;;5011820;28;20026;-76
2023/04/12 09:58:30;;;;;;;17.77;3.55;;;13.50;96.10;;;;;;5031879;28;20094;-75
2023/04/12 10:00:57;;;;;;;14.85;4.30;;;13.60;95.70;;;;;;5032392;28;21458;-75
2023/04/12 10:03:23;;;;;;;12.30;3.67;;;13.60;95.10;;;;;;5029242;28;20119;-78
2023/04/12 10:05:48;;;;;;;18.05;4.55;;;13.70;95.30;;;;;;5014428;28;20041;-76
2023/04/12 10:08:14;;;;;;;15.73;3.30;;;13.70;94.80;;;;;;5032329;28;20029;-76
2023/04/12 10:10:42;;;;;;;17.80;3.97;;;13.80;94.40;;;;;;5031743;28;20617;-74
2023/04/12 10:13:11;;;;;;;16.92;4.35;;;13.80;94.50;;;;;;5014369;28;20117;-75
2023/04/12 10:15:39;;;;;;;18.90;4.22;;;13.90;93.40;;;;;;5032779;28;20033;-76
2023/04/12 10:18:06;;;;;;;25.75;4.65;;;13.90;93.00;;;;;;5013537;28;20044;-75
2023/04/12 10:20:32;;;;;;;15.93;3.08;;;14.00;93.30;;;;;;5013118;28;20037;-76
2023/04/12 10:22:58;;;;;;;19.83;3.65;;;14.10;93.50;;;;;;5032136;28;20849;-73
2023/04/12 10:25:26;;;;;;;17.95;3.83;;;14.20;92.20;;;;;;5013960;28;20014;-75
2023/04/12 10:27:52;;;;;;;13.88;3.45;;;14.20;91.50;;;;;;5033755;28;20026;-74
2023/04/12 10:30:28;;;;;;;18.35;3.20;;;14.20;91.60;;;;;;5031691;28;20052;-75
2023/04/12 10:33:06;;;;;;;18.35;3.50;;;14.20;92.00;;;;;;5030219;28;20496;-74
2023/04/12 10:36:07;;;;;;;12.50;3.00;;;14.30;92.10;;;;;;5023639;28;20037;-75
2023/04/12 10:39:08;;;;;;;15.80;3.25;;;14.40;92.30;;;;;;5032159;28;20017;-75
2023/04/12 10:41:34;;;;;;;24.27;6.03;;;14.60;91.30;;;;;;5030037;28;20092;-75
2023/04/12 10:44:25;;;;;;;18.58;4.05;;;14.60;91.60;;;;;;5029208;28;20025;-75
2023/04/12 10:46:51;;;;;;;17.95;3.33;;;14.50;90.90;;;;;;5020771;28;20388;-73
2023/04/12 10:49:17;;;;;;;13.77;3.42;;;14.40;91.00;;;;;;5011636;28;20082;-74
2023/04/12 10:52:18;;;;;;;21.48;4.85;;;14.40;91.40;;;;;;5034407;28;20044;-73
2023/04/12 10:54:44;;;;;;;14.20;3.38;;;14.20;91.40;;;;;;4947841;28;21071;-74
2023/04/12 10:57:39;;;;;;;16.88;3.60;;;14.00;91.60;;;;;;5020057;28;20063;-75
2023/04/12 11:00:06;;;;;;;21.33;5.28;;;13.90;91.90;;;;;;5033095;28;20431;-73
2023/04/12 11:02:33;;;;;;;17.90;4.22;;;13.80;92.60;;;;;;5016816;28;20083;-74
2023/04/12 11:05:13;;;;;;;11.63;3.25;;;13.80;93.10;;;;;;5015346;28;20025;-74
2023/04/12 11:07:40;;;;;;;16.77;3.85;;;13.70;93.40;;;;;;5031526;28;20025;-73
2023/04/12 11:10:18;;;;;;;17.30;3.63;;;13.70;93.60;;;;;;5030464;28;20021;-74
2023/04/12 11:12:49;;;;;;;14.07;3.00;;;13.70;93.90;;;;;;5029479;28;20041;-73
2023/04/12 11:15:24;;;;;;;15.48;3.75;;;13.80;93.90;;;;;;5026408;28;20064;-72
2023/04/12 11:17:54;;;;;;;18.20;3.53;;;13.90;93.40;;;;;;5010237;28;20447;-73
2023/04/12 11:20:20;;;;;;;19.67;4.15;;;13.80;91.60;;;;;;5008286;28;20029;-74
2023/04/12 11:22:47;;;;;;;15.27;3.55;;;13.80;92.40;;;;;;5012589;28;20041;-75
2023/04/12 11:25:16;;;;;;;11.43;2.83;;;13.90;92.50;;;;;;5029325;28;20024;-73
2023/04/12 11:27:51;;;;;;;7.18;1.60;;;14.00;92.80;;;;;;5028634;28;20106;-74
2023/04/12 11:30:17;;;;;;;13.27;2.83;;;14.10;93.00;;;;;;4994920;28;20075;-73
2023/04/12 11:32:44;;;;;;;15.00;2.72;;;14.30;93.00;;;;;;5010972;28;20037;-74
2023/04/12 11:35:10;;;;;;;15.43;3.25;;;14.40;92.70;;;;;;5027589;28;21480;-75
2023/04/12 11:37:37;;;;;;;22.92;4.28;;;14.50;92.10;;;;;;5013896;28;20025;-74
2023/04/12 11:40:04;;;;;;;19.30;4.15;;;14.50;91.10;;;;;;5025074;28;20026;-71
2023/04/12 11:42:31;;;;;;;17.60;3.08;;;14.50;90.70;;;;;;5025241;28;20086;-74
2023/04/12 11:44:58;;;;;;;14.10;3.47;;;14.50;90.80;;;;;;5027300;28;20017;-73
2023/04/12 11:47:24;;;;;;;24.98;4.28;;;14.50;90.70;;;;;;5029612;28;20051;-72
2023/04/12 11:49:55;;;;;;;14.25;3.67;;;14.60;90.60;;;;;;5027758;28;20052;-75
2023/04/12 11:52:21;;;;;;;;;;;14.70;90.10;;;;;;5027636;28;20040;-73
2023/04/12 11:54:50;;;;;;;27.33;4.07;;;14.70;90.40;;;;;;5027977;28;20636;-74
2023/04/12 11:57:17;;;;;;;18.77;3.42;;;14.80;90.50;;;;;;5023561;28;20025;-74
2023/04/12 11:59:44;;;;;;;18.17;3.10;;;14.80;90.40;;;;;;5029001;28;20495;-73
2023/04/12 12:02:11;;;;;;;15.50;3.08;;;14.90;90.30;;;;;;5029077;28;20589;-74
2023/04/12 12:04:38;;;;;;;13.23;3.33;;;14.80;87.10;;;;;;5031710;28;20025;-74
2023/04/12 12:07:05;;;;;;;17.33;3.00;;;14.60;81.90;;;;;;5027546;28;20021;-73
2023/04/12 12:09:31;;;;;;;13.80;2.65;;;14.50;83.90;;;;;;5011517;28;20060;-72
2023/04/12 12:11:57;;;;;;;12.77;2.42;;;14.40;81.30;;;;;;5028200;28;20021;-73
2023/04/12 12:14:24;;;;;;;12.00;2.53;;;14.30;82.00;;;;;;5033702;28;20409;-73
2023/04/12 12:16:57;;;;;;;12.73;2.65;;;14.20;80.50;;;;;;5029316;28;20080;-73
2023/04/12 12:19:31;;;;;;;12.13;3.03;;;14.20;82.30;;;;;;5030466;28;20025;-72
2023/04/12 12:22:15;;;;;;;14.07;1.95;;;14.20;80.50;;;;;;5031827;28;20495;-74
2023/04/12 12:24:54;;;;;;;11.80;2.53;;;14.10;79.90;;;;;;5032242;28;20104;-73
2023/04/12 12:27:43;;;;;;;13.13;2.90;;;14.10;81.10;;;;;;5033064;28;20148;-74
2023/04/12 12:30:10;;;;;;;13.13;2.90;;;14.10;82.40;;;;;;5032248;28;20025;-72
2023/04/12 12:32:37;;;;;;;14.30;2.80;;;14.10;84.40;;;;;;5009310;28;20507;-71
2023/04/12 12:35:08;;;;;;;13.55;3.00;;;14.30;83.40;;;;;;5028587;28;20017;-75
2023/04/12 12:37:34;;;;;;;16.30;2.95;;;14.20;81.80;;;;;;5024778;28;20032;-73
2023/04/12 12:40:15;;;;;;;15.25;3.53;;;14.20;82.00;;;;;;5023958;28;20026;-73
2023/04/12 12:42:48;;;;;;;12.50;2.22;;;14.20;83.20;;;;;;5007874;28;20555;-73
2023/04/12 12:45:16;;;;;;;15.80;2.70;;;14.30;83.80;;;;;;5022330;28;20026;-72
2023/04/12 12:48:02;;;;;;;9.63;2.08;;;14.20;81.20;;;;;;5028852;28;20021;-73
2023/04/12 12:50:33;;;;;;;9.68;2.63;;;14.30;81.50;;;;;;5027918;28;20045;-73
2023/04/12 12:52:59;;;;;;;13.65;2.63;;;14.20;75.30;;;;;;5028551;28;20037;-73
2023/04/12 12:55:26;;;;;;;11.30;2.30;;;14.20;76.70;;;;;;5012683;28;20090;-72